Time;durP1;ratioP1;P1;durP2;ratioP2;P2;SDS_P1;SDS_P2;PMS_P1;PMS_P2;Temp;Humidity;BMP_temperature;BMP_pressure;BME280_temperature;BME280_humidity;BME280_pressure;Samples;Min_cycle;Max_cycle;Signal;HPM_P1;HPM_P2
2024/04/18 00:00:15;;;;;;;4.50;3.30;;;11.90;94.50;;;;;;5251043;27;21066;-34
2024/04/18 00:02:41;;;;;;;4.13;3.33;;;11.90;94.50;;;;;;5246183;27;20248;-33
2024/04/18 00:05:07;;;;;;;4.60;3.70;;;11.90;94.50;;;;;;5279799;27;20553;-33
2024/04/18 00:07:35;;;;;;;5.50;3.67;;;11.90;94.50;;;;;;5237995;27;20483;-34
2024/04/18 00:10:14;;;;;;;5.10;3.37;;;11.90;94.80;;;;;;5275797;27;20475;-32
2024/04/18 00:12:42;;;;;;;5.07;3.93;;;11.90;94.50;;;;;;5277012;27;20515;-32
2024/04/18 00:15:23;;;;;;;4.77;3.50;;;11.90;94.50;;;;;;5279408;27;20472;-32
2024/04/18 00:17:55;;;;;;;4.67;4.00;;;11.90;94.50;;;;;;5274501;27;20605;-32
2024/04/18 00:20:22;;;;;;;4.53;3.60;;;11.90;94.60;;;;;;5268508;27;20551;-32
2024/04/18 00:22:48;;;;;;;3.63;3.33;;;11.90;94.60;;;;;;5289827;27;20476;-33
2024/04/18 00:25:16;;;;;;;4.67;3.77;;;11.90;94.60;;;;;;5274503;27;20604;-33
2024/04/18 00:27:52;;;;;;;4.23;3.77;;;11.90;94.80;;;;;;5245292;27;20476;-32
2024/04/18 00:30:41;;;;;;;4.80;3.77;;;11.90;94.60;;;;;;5287612;27;20475;-33
2024/04/18 00:33:08;;;;;;;4.50;3.87;;;11.90;94.60;;;;;;5282082;27;20464;-32
2024/04/18 00:35:40;;;;;;;4.50;3.70;;;11.90;94.60;;;;;;5286510;27;20479;-32
2024/04/18 00:38:14;;;;;;;5.40;4.00;;;11.80;94.60;;;;;;5256628;27;20468;-33
2024/04/18 00:40:47;;;;;;;4.37;3.97;;;11.80;94.60;;;;;;5278664;27;20523;-33
2024/04/18 00:43:23;;;;;;;4.57;3.40;;;11.80;94.60;;;;;;5289383;27;20541;-32
2024/04/18 00:45:55;;;;;;;4.97;4.00;;;11.80;94.60;;;;;;5287272;27;20555;-32
2024/04/18 00:48:24;;;;;;;4.57;3.73;;;11.80;94.60;;;;;;5273206;27;21102;-32
2024/04/18 00:50:53;;;;;;;6.70;4.13;;;11.80;94.60;;;;;;5248837;27;20596;-33
2024/04/18 00:53:22;;;;;;;3.70;3.40;;;11.80;94.60;;;;;;5270606;27;21158;-34
2024/04/18 00:55:52;;;;;;;5.10;4.00;;;11.80;94.60;;;;;;5253056;27;20465;-33
2024/04/18 00:58:18;;;;;;;5.30;3.67;;;11.80;94.60;;;;;;5288824;27;20473;-32
2024/04/18 01:00:50;;;;;;;4.43;3.80;;;11.80;94.60;;;;;;5253735;27;20915;-34
2024/04/18 01:03:34;;;;;;;5.50;4.00;;;11.80;94.60;;;;;;5269133;27;20629;-32
2024/04/18 01:06:07;;;;;;;5.37;3.87;;;11.80;94.60;;;;;;5274589;27;20490;-33
2024/04/18 01:08:55;;;;;;;6.00;4.33;;;11.80;94.60;;;;;;5245054;27;20558;-33
2024/04/18 01:11:32;;;;;;;4.23;3.63;;;11.70;94.50;;;;;;5284091;27;20533;-32
2024/04/18 01:14:09;;;;;;;5.10;3.60;;;11.70;94.50;;;;;;5226541;27;20951;-33
2024/04/18 01:16:53;;;;;;;5.40;4.37;;;11.70;94.60;;;;;;5250320;27;20511;-32
2024/04/18 01:19:19;;;;;;;4.83;3.90;;;11.70;94.50;;;;;;5259065;27;20870;-33
2024/04/18 01:21:49;;;;;;;5.10;4.60;;;11.70;94.50;;;;;;5256405;27;20465;-31
2024/04/18 01:24:15;;;;;;;4.83;3.57;;;11.70;94.60;;;;;;5224581;27;20484;-32
2024/04/18 01:26:42;;;;;;;5.90;4.07;;;11.70;94.50;;;;;;5278767;27;20487;-32
2024/04/18 01:29:08;;;;;;;4.03;3.50;;;11.70;94.50;;;;;;5279137;27;20468;-32
2024/04/18 01:31:34;;;;;;;5.27;4.73;;;11.70;94.50;;;;;;5272211;27;20539;-33
2024/04/18 01:33:59;;;;;;;4.57;3.83;;;11.70;94.50;;;;;;5274050;27;20482;-33
2024/04/18 01:36:28;;;;;;;4.13;3.60;;;11.70;94.50;;;;;;5283953;27;20483;-33
2024/04/18 01:38:56;;;;;;;4.43;3.60;;;11.70;94.50;;;;;;5274731;27;20545;-32
2024/04/18 01:41:30;;;;;;;4.13;3.57;;;11.70;94.50;;;;;;5259001;27;20966;-33
2024/04/18 01:43:59;;;;;;;4.93;4.03;;;11.70;94.50;;;;;;5252219;27;20525;-33
2024/04/18 01:46:43;;;;;;;7.47;4.43;;;11.70;94.60;;;;;;5256361;27;20509;-32
2024/04/18 01:49:29;;;;;;;4.63;3.60;;;11.70;94.50;;;;;;5264469;27;20483;-32
2024/04/18 01:51:58;;;;;;;3.63;3.33;;;11.70;94.50;;;;;;5284133;27;20487;-33
2024/04/18 01:54:33;;;;;;;4.37;3.37;;;11.60;94.50;;;;;;5258479;27;20931;-33
2024/04/18 01:57:00;;;;;;;4.00;3.60;;;11.60;94.50;;;;;;5294374;27;20555;-32
2024/04/18 01:59:46;;;;;;;4.87;3.67;;;11.60;94.90;;;;;;5282582;27;20600;-33
2024/04/18 02:02:12;;;;;;;4.20;3.47;;;11.60;94.50;;;;;;5254705;27;20475;-31
2024/04/18 02:05:00;;;;;;;3.93;3.53;;;11.60;94.50;;;;;;5295380;27;20535;-33
2024/04/18 02:07:43;;;;;;;4.20;3.30;;;11.60;94.50;;;;;;5262982;27;20484;-32
2024/04/18 02:10:09;;;;;;;4.90;3.70;;;11.60;94.60;;;;;;5280755;27;20485;-32
2024/04/18 02:12:56;;;;;;;3.83;3.40;;;11.60;94.60;;;;;;5278031;27;20469;-32
2024/04/18 02:15:42;;;;;;;3.87;3.17;;;11.60;94.60;;;;;;5278485;27;20540;-32
2024/04/18 02:18:14;;;;;;;5.93;3.70;;;11.60;94.60;;;;;;5269761;27;20472;-33
2024/04/18 02:20:43;;;;;;;4.80;3.73;;;11.60;94.60;;;;;;5232206;27;20823;-33
2024/04/18 02:23:24;;;;;;;3.27;2.97;;;11.60;94.60;;;;;;5254178;27;21164;-32
2024/04/18 02:25:50;;;;;;;3.67;3.23;;;11.60;94.60;;;;;;5256987;27;20545;-33
2024/04/18 02:28:18;;;;;;;5.20;3.40;;;11.60;94.70;;;;;;5252793;27;21390;-32
2024/04/18 02:30:44;;;;;;;4.20;3.00;;;11.60;94.70;;;;;;5271442;27;20476;-32
2024/04/18 02:33:13;;;;;;;3.60;3.27;;;11.50;94.60;;;;;;5235124;27;21362;-33
2024/04/18 02:35:47;;;;;;;3.17;2.87;;;11.50;94.60;;;;;;5252095;27;20540;-32
2024/04/18 02:38:37;;;;;;;3.83;2.57;;;11.50;94.60;;;;;;5246115;27;20532;-33
2024/04/18 02:41:07;;;;;;;3.60;2.80;;;11.50;94.60;;;;;;5278820;27;20463;-33
2024/04/18 02:43:51;;;;;;;4.80;2.43;;;11.50;94.60;;;;;;5289498;27;20471;-32
2024/04/18 02:46:20;;;;;;;2.90;2.60;;;11.50;94.60;;;;;;5282340;27;20455;-32
2024/04/18 02:49:05;;;;;;;2.90;2.40;;;11.50;94.60;;;;;;5254726;27;20562;-32
2024/04/18 02:51:31;;;;;;;4.10;2.60;;;11.50;94.60;;;;;;5254241;27;21388;-34
2024/04/18 02:54:13;;;;;;;2.63;2.43;;;11.50;94.60;;;;;;5254351;27;20472;-33
2024/04/18 02:56:40;;;;;;;3.80;2.90;;;11.50;94.60;;;;;;5261811;27;20475;-34
2024/04/18 02:59:17;;;;;;;2.80;2.60;;;11.50;94.60;;;;;;5259892;27;20582;-32
2024/04/18 03:01:52;;;;;;;3.97;2.50;;;11.50;94.60;;;;;;5270017;27;20475;-32
2024/04/18 03:04:18;;;;;;;3.70;2.57;;;11.50;94.60;;;;;;5281005;27;20557;-31
2024/04/18 03:06:45;;;;;;;2.50;2.30;;;11.50;94.60;;;;;;5279423;27;20460;-33
2024/04/18 03:09:12;;;;;;;2.90;2.33;;;11.50;94.60;;;;;;5273565;27;20512;-32
2024/04/18 03:11:54;;;;;;;3.90;2.37;;;11.50;94.60;;;;;;5282682;27;20517;-33
2024/04/18 03:14:42;;;;;;;3.33;2.67;;;11.50;94.60;;;;;;5273938;27;21419;-33
2024/04/18 03:17:08;;;;;;;3.13;2.83;;;11.50;94.60;;;;;;5253895;27;20518;-32
2024/04/18 03:19:55;;;;;;;2.60;2.30;;;11.40;94.60;;;;;;5270441;27;20475;-32
2024/04/18 03:22:25;;;;;;;2.40;2.20;;;11.40;94.60;;;;;;5258265;27;21045;-32
2024/04/18 03:25:00;;;;;;;4.57;2.20;;;11.40;94.60;;;;;;5260746;27;21511;-33
2024/04/18 03:27:30;;;;;;;2.83;2.60;;;11.40;94.60;;;;;;5281622;27;20528;-34
2024/04/18 03:29:58;;;;;;;6.07;2.40;;;11.40;94.60;;;;;;5252724;27;20513;-32
2024/04/18 03:32:37;;;;;;;3.20;2.90;;;11.40;94.60;;;;;;5289912;27;20508;-32
2024/04/18 03:35:06;;;;;;;3.50;1.87;;;11.40;94.60;;;;;;5246341;27;20507;-32
2024/04/18 03:37:37;;;;;;;2.43;2.23;;;11.40;94.60;;;;;;5276271;27;20465;-32
2024/04/18 03:40:23;;;;;;;3.57;2.67;;;11.40;94.60;;;;;;5273896;27;20527;-33
2024/04/18 03:43:04;;;;;;;2.87;2.57;;;11.40;94.70;;;;;;5241529;27;20584;-33
2024/04/18 03:45:31;;;;;;;2.73;2.20;;;11.40;94.60;;;;;;5284597;27;21145;-32
2024/04/18 03:48:16;;;;;;;3.77;2.07;;;11.40;94.60;;;;;;5283249;27;20464;-33
2024/04/18 03:50:45;;;;;;;2.80;2.27;;;11.40;94.70;;;;;;5284673;27;20565;-34
2024/04/18 03:53:22;;;;;;;2.60;2.37;;;11.40;94.70;;;;;;5278144;27;20650;-33
2024/04/18 03:56:08;;;;;;;2.70;1.83;;;11.40;94.80;;;;;;5239897;27;20463;-33
2024/04/18 03:58:34;;;;;;;2.90;2.10;;;11.40;94.70;;;;;;5237861;27;20592;-32
2024/04/18 04:01:02;;;;;;;2.50;2.30;;;11.40;94.70;;;;;;5276392;27;20479;-33
2024/04/18 04:03:29;;;;;;;3.00;2.40;;;11.30;94.70;;;;;;5261126;27;20814;-33
2024/04/18 04:05:54;;;;;;;2.43;2.23;;;11.30;94.70;;;;;;5263018;27;20471;-33
2024/04/18 04:08:21;;;;;;;2.60;2.40;;;11.30;94.70;;;;;;5273969;27;20475;-33
2024/04/18 04:10:51;;;;;;;2.57;2.23;;;11.30;94.70;;;;;;5226191;27;20484;-33
2024/04/18 04:13:17;;;;;;;2.47;1.97;;;11.30;94.70;;;;;;5248572;27;20516;-33
2024/04/18 04:15:52;;;;;;;2.20;1.90;;;11.30;94.70;;;;;;5258360;27;21265;-32
2024/04/18 04:18:37;;;;;;;3.57;2.27;;;11.30;94.70;;;;;;5273166;27;20533;-34
2024/04/18 04:21:22;;;;;;;2.80;2.30;;;11.30;94.70;;;;;;5272767;27;20471;-32
2024/04/18 04:23:50;;;;;;;2.17;1.90;;;11.30;94.70;;;;;;5259725;27;20558;-34
2024/04/18 04:26:16;;;;;;;2.30;1.87;;;11.30;94.70;;;;;;5236224;27;20523;-32
2024/04/18 04:28:42;;;;;;;3.70;2.30;;;11.30;95.10;;;;;;5277343;27;20471;-32
2024/04/18 04:31:09;;;;;;;2.17;1.87;;;11.30;94.70;;;;;;5249977;27;20882;-32
2024/04/18 04:33:35;;;;;;;5.40;1.93;;;11.30;94.70;;;;;;5257783;27;20876;-33
2024/04/18 04:36:00;;;;;;;2.33;1.83;;;11.30;94.70;;;;;;5279411;27;21417;-34
2024/04/18 04:38:27;;;;;;;2.70;2.20;;;11.30;94.70;;;;;;5208236;27;20469;-33
2024/04/18 04:40:55;;;;;;;2.90;2.20;;;11.30;94.70;;;;;;5237313;27;21177;-40
2024/04/18 04:43:26;;;;;;;3.10;2.27;;;11.30;94.70;;;;;;5285006;27;20598;-32
2024/04/18 04:45:55;;;;;;;2.77;2.33;;;11.30;94.70;;;;;;5273439;27;20480;-34
2024/04/18 04:48:35;;;;;;;2.33;2.13;;;11.30;94.70;;;;;;5267516;27;20509;-33
2024/04/18 04:51:14;;;;;;;2.70;2.03;;;11.30;94.70;;;;;;5271906;27;20537;-32
2024/04/18 04:53:41;;;;;;;2.10;1.90;;;11.30;94.70;;;;;;5230281;27;20496;-34
2024/04/18 04:56:08;;;;;;;2.57;2.27;;;11.30;94.80;;;;;;5245844;27;20882;-32
2024/04/18 04:58:35;;;;;;;2.20;2.00;;;11.30;94.80;;;;;;5286128;27;21061;-34
2024/04/18 05:01:04;;;;;;;3.10;2.17;;;11.20;94.70;;;;;;5216603;27;20469;-32
2024/04/18 05:03:36;;;;;;;2.03;1.67;;;11.20;94.70;;;;;;5265919;27;20536;-32
2024/04/18 05:06:24;;;;;;;5.60;2.20;;;11.20;94.70;;;;;;5281502;27;21208;-32
2024/04/18 05:09:14;;;;;;;2.17;1.90;;;11.20;94.70;;;;;;5263489;27;20496;-34
2024/04/18 05:11:40;;;;;;;2.20;1.80;;;11.20;94.70;;;;;;5254055;27;20471;-34
2024/04/18 05:14:26;;;;;;;3.43;2.27;;;11.20;94.70;;;;;;5254056;27;20570;-32
2024/04/18 05:16:52;;;;;;;2.57;2.10;;;11.20;94.70;;;;;;5280909;27;20518;-33
2024/04/18 05:19:20;;;;;;;2.40;2.20;;;11.20;94.70;;;;;;5261741;27;20475;-32
2024/04/18 05:21:46;;;;;;;2.77;2.40;;;11.20;94.70;;;;;;5283638;27;20483;-33
2024/04/18 05:24:34;;;;;;;2.20;2.00;;;11.20;94.80;;;;;;5251918;27;20477;-32
2024/04/18 05:27:00;;;;;;;3.10;2.50;;;11.20;94.70;;;;;;5246127;27;20475;-34
2024/04/18 05:32:10;;;;;;;3.23;2.23;;;11.20;94.70;;;;;;5248983;27;20485;-32
2024/04/18 05:34:36;;;;;;;2.43;2.23;;;11.20;94.70;;;;;;5225782;27;20570;-33
2024/04/18 05:37:02;;;;;;;2.77;2.30;;;11.20;94.80;;;;;;5253863;27;21168;-33
2024/04/18 05:39:28;;;;;;;2.30;2.10;;;11.20;94.80;;;;;;5253649;27;20968;-32
2024/04/18 05:41:56;;;;;;;2.80;2.50;;;11.20;94.80;;;;;;5288030;27;21221;-32
2024/04/18 05:44:39;;;;;;;2.90;2.10;;;11.20;94.80;;;;;;5255406;27;20521;-33
2024/04/18 05:47:06;;;;;;;2.33;2.00;;;11.20;94.80;;;;;;5278755;27;20530;-32
2024/04/18 05:49:34;;;;;;;2.43;2.23;;;11.20;94.80;;;;;;5288770;27;20512;-32
2024/04/18 05:52:00;;;;;;;2.40;2.20;;;11.20;94.80;;;;;;5276578;27;20528;-31
2024/04/18 05:54:31;;;;;;;2.90;2.57;;;11.20;94.80;;;;;;5275681;27;20471;-33
2024/04/18 05:57:06;;;;;;;3.90;2.87;;;11.20;94.80;;;;;;5275580;27;20510;-33
2024/04/18 05:59:51;;;;;;;3.77;3.07;;;11.20;94.80;;;;;;5252690;27;20486;-33
2024/04/18 06:02:17;;;;;;;5.70;4.10;;;11.20;94.80;;;;;;5280020;27;20567;-32
2024/04/18 06:04:44;;;;;;;5.30;4.70;;;11.10;94.70;;;;;;5276237;27;20471;-32
2024/04/18 06:07:32;;;;;;;5.83;5.23;;;11.10;94.80;;;;;;5283383;27;21695;-33
2024/04/18 06:09:58;;;;;;;8.57;5.23;;;11.10;94.70;;;;;;5197982;27;20510;-32
2024/04/18 06:12:24;;;;;;;6.17;5.23;;;11.10;94.80;;;;;;5270290;27;20597;-33
2024/04/18 06:14:50;;;;;;;6.60;5.60;;;11.10;94.70;;;;;;5217776;27;21374;-34
2024/04/18 06:17:19;;;;;;;6.17;4.80;;;11.10;94.80;;;;;;5263474;27;20564;-31
2024/04/18 06:19:56;;;;;;;7.77;4.57;;;11.10;94.70;;;;;;5285222;27;20856;-32
2024/04/18 06:22:30;;;;;;;7.30;5.30;;;11.10;94.70;;;;;;5236014;27;20538;-32
2024/04/18 06:25:16;;;;;;;7.70;4.20;;;11.10;94.80;;;;;;5284541;27;20478;-33
2024/04/18 06:27:45;;;;;;;5.33;4.80;;;11.10;94.80;;;;;;5287411;27;21514;-33
2024/04/18 06:30:14;;;;;;;7.33;5.43;;;11.10;94.70;;;;;;5288399;27;20467;-33
2024/04/18 06:32:40;;;;;;;5.97;4.20;;;11.10;94.80;;;;;;5252711;27;20590;-32
2024/04/18 06:35:06;;;;;;;6.73;4.20;;;11.10;94.70;;;;;;5257621;27;20725;-33
2024/04/18 06:37:32;;;;;;;5.63;4.30;;;11.10;94.80;;;;;;5277851;27;20822;-31
2024/04/18 06:40:00;;;;;;;4.53;3.97;;;11.10;94.80;;;;;;5281737;27;20522;-32
2024/04/18 06:42:26;;;;;;;4.70;4.17;;;11.10;94.80;;;;;;5286327;27;20463;-32
2024/04/18 06:44:52;;;;;;;4.30;3.80;;;11.10;94.80;;;;;;5270665;27;20611;-33
2024/04/18 06:47:18;;;;;;;5.00;3.80;;;11.10;94.80;;;;;;5253577;27;20933;-33
2024/04/18 06:50:04;;;;;;;4.67;4.17;;;11.10;94.80;;;;;;5246902;27;21114;-32
2024/04/18 06:52:32;;;;;;;4.50;3.70;;;11.10;94.80;;;;;;5283271;27;20459;-32
2024/04/18 06:55:00;;;;;;;4.00;3.40;;;11.10;94.80;;;;;;5286632;27;20456;-33
2024/04/18 06:57:42;;;;;;;6.80;3.40;;;11.10;94.80;;;;;;5237069;27;21132;-32
2024/04/18 07:00:10;;;;;;;4.90;3.70;;;11.10;94.80;;;;;;5268137;27;20511;-31
2024/04/18 07:02:37;;;;;;;5.93;3.37;;;11.10;94.80;;;;;;5279196;27;20520;-32
2024/04/18 07:05:21;;;;;;;4.97;3.50;;;11.10;94.80;;;;;;5238229;27;20527;-33
2024/04/18 07:07:53;;;;;;;3.50;3.10;;;11.10;94.80;;;;;;5284588;27;20475;-31
2024/04/18 07:10:32;;;;;;;5.03;3.73;;;11.10;94.80;;;;;;5227712;27;20848;-32
2024/04/18 07:13:19;;;;;;;5.63;3.50;;;11.10;94.80;;;;;;5231762;27;20468;-33
2024/04/18 07:16:00;;;;;;;5.40;3.07;;;11.10;94.80;;;;;;5259069;27;21100;-31
2024/04/18 07:18:45;;;;;;;4.60;3.13;;;11.10;94.80;;;;;;5275200;27;21037;-33
2024/04/18 07:21:11;;;;;;;3.23;2.90;;;11.10;94.90;;;;;;5260742;27;20471;-33
2024/04/18 07:23:37;;;;;;;4.03;2.60;;;11.10;94.90;;;;;;5265660;27;20510;-31
2024/04/18 07:26:04;;;;;;;4.50;2.77;;;11.10;94.90;;;;;;5243267;27;20481;-32
2024/04/18 07:28:30;;;;;;;4.80;3.30;;;11.10;94.90;;;;;;5256939;27;20530;-32
2024/04/18 07:30:56;;;;;;;3.53;2.60;;;11.10;94.90;;;;;;5250804;27;20473;-32
2024/04/18 07:33:22;;;;;;;7.80;3.03;;;11.10;94.90;;;;;;5250454;27;20475;-31
2024/04/18 07:36:03;;;;;;;3.93;2.70;;;11.10;94.80;;;;;;5238242;27;20521;-32
2024/04/18 07:38:29;;;;;;;5.67;2.70;;;11.10;94.80;;;;;;5250826;27;21666;-32
2024/04/18 07:40:55;;;;;;;9.17;2.83;;;11.10;94.80;;;;;;5247816;27;20464;-32
2024/04/18 07:43:26;;;;;;;3.60;2.37;;;11.10;94.90;;;;;;5240241;27;20634;-31
2024/04/18 07:45:52;;;;;;;5.10;3.20;;;11.10;94.80;;;;;;5279413;27;20813;-32
2024/04/18 07:48:21;;;;;;;3.30;2.67;;;11.10;94.90;;;;;;5280179;27;20544;-32
2024/04/18 07:50:50;;;;;;;5.23;2.70;;;11.10;94.80;;;;;;5272294;27;20598;-33
2024/04/18 07:53:17;;;;;;;5.33;2.40;;;11.10;94.80;;;;;;5270582;27;20525;-33
2024/04/18 07:55:43;;;;;;;5.00;2.53;;;11.10;94.80;;;;;;5280791;27;20455;-33
2024/04/18 07:58:09;;;;;;;3.13;2.23;;;11.10;94.80;;;;;;5283636;27;20526;-33
2024/04/18 08:00:36;;;;;;;3.27;2.33;;;11.20;94.90;;;;;;5247009;27;20630;-32
2024/04/18 08:03:03;;;;;;;3.30;2.20;;;11.20;94.90;;;;;;5272212;27;20901;-31
2024/04/18 08:05:29;;;;;;;3.07;2.17;;;11.20;94.80;;;;;;5251270;27;20596;-32
2024/04/18 08:07:55;;;;;;;8.07;2.60;;;11.20;94.80;;;;;;5277385;27;20465;-32
2024/04/18 08:10:21;;;;;;;4.10;2.30;;;11.20;94.90;;;;;;5243977;27;20483;-32
2024/04/18 08:12:47;;;;;;;3.10;2.17;;;11.20;94.90;;;;;;5277422;27;21074;-31
2024/04/18 08:15:13;;;;;;;5.70;2.50;;;11.20;94.80;;;;;;5246130;27;20851;-33
2024/04/18 08:17:40;;;;;;;3.20;1.90;;;11.20;94.90;;;;;;5275788;27;20524;-31
2024/04/18 08:20:10;;;;;;;2.83;1.70;;;11.20;94.80;;;;;;5281407;27;20508;-31
2024/04/18 08:22:36;;;;;;;6.10;2.40;;;11.20;94.70;;;;;;5266929;27;20456;-32
2024/04/18 08:25:06;;;;;;;3.67;1.90;;;11.20;94.70;;;;;;5219462;27;20608;-32
2024/04/18 08:27:33;;;;;;;3.00;1.80;;;11.20;94.60;;;;;;5258821;27;20574;-32
2024/04/18 08:29:59;;;;;;;3.60;2.00;;;11.30;94.60;;;;;;5266540;27;20472;-33
2024/04/18 08:32:26;;;;;;;3.53;2.00;;;11.30;94.60;;;;;;5229549;27;21193;-32
2024/04/18 08:34:52;;;;;;;2.70;1.73;;;11.30;94.50;;;;;;5274637;27;20473;-32
2024/04/18 08:37:21;;;;;;;2.83;1.70;;;11.30;94.50;;;;;;5269441;27;20595;-33
2024/04/18 08:39:49;;;;;;;4.50;2.13;;;11.30;94.50;;;;;;5250346;27;20536;-32
2024/04/18 08:42:18;;;;;;;4.60;1.80;;;11.30;94.50;;;;;;5274509;27;20894;-33
2024/04/18 08:44:44;;;;;;;2.77;2.00;;;11.30;94.50;;;;;;5286434;27;20603;-33
2024/04/18 08:47:15;;;;;;;5.90;1.97;;;11.30;94.50;;;;;;5272897;27;20473;-32
2024/04/18 08:49:43;;;;;;;4.13;1.70;;;11.30;94.50;;;;;;5282210;27;20471;-32
2024/04/18 08:52:12;;;;;;;2.17;1.80;;;11.40;94.50;;;;;;5258543;27;20471;-33
2024/04/18 08:54:38;;;;;;;4.80;1.77;;;11.40;94.40;;;;;;5290539;27;20516;-32
2024/04/18 08:57:07;;;;;;;6.63;1.97;;;11.40;94.40;;;;;;5264674;27;21415;-32
2024/04/18 08:59:35;;;;;;;2.10;1.70;;;11.40;94.30;;;;;;5240801;27;21314;-33
2024/04/18 09:02:02;;;;;;;4.30;1.60;;;11.50;94.40;;;;;;5281292;27;20513;-31
2024/04/18 09:04:31;;;;;;;4.60;2.13;;;11.50;94.40;;;;;;5249588;27;20528;-32
2024/04/18 09:06:57;;;;;;;3.50;2.03;;;11.50;94.40;;;;;;5259055;27;20471;-31
2024/04/18 09:09:26;;;;;;;4.87;2.10;;;11.50;94.30;;;;;;5271436;27;20599;-32
2024/04/18 09:11:51;;;;;;;3.40;2.07;;;11.50;94.50;;;;;;5273901;27;20479;-32
2024/04/18 09:14:18;;;;;;;5.23;2.37;;;11.60;94.30;;;;;;5249855;27;20463;-32
2024/04/18 09:16:44;;;;;;;3.10;1.87;;;11.60;94.20;;;;;;5285552;27;20524;-32
2024/04/18 09:19:10;;;;;;;2.60;1.90;;;11.60;94.20;;;;;;5284347;27;20564;-32
2024/04/18 09:21:37;;;;;;;4.13;1.63;;;11.70;94.30;;;;;;5280222;27;20483;-33
2024/04/18 09:24:05;;;;;;;2.80;2.23;;;11.70;94.20;;;;;;5261559;27;21081;-32
2024/04/18 09:26:31;;;;;;;4.00;1.73;;;11.70;94.20;;;;;;5250112;27;20465;-32
2024/04/18 09:28:58;;;;;;;3.60;1.77;;;11.70;94.20;;;;;;5274310;27;20535;-32
2024/04/18 09:31:27;;;;;;;2.50;1.57;;;11.80;94.20;;;;;;5256898;27;20580;-33
2024/04/18 09:33:58;;;;;;;4.63;2.23;;;11.80;94.10;;;;;;5285003;27;21220;-31
2024/04/18 09:36:25;;;;;;;3.70;1.53;;;11.80;94.00;;;;;;5290504;27;20724;-33
2024/04/18 09:38:54;;;;;;;2.33;1.63;;;11.80;93.90;;;;;;5278105;27;20468;-33
2024/04/18 09:41:25;;;;;;;4.33;1.97;;;11.80;93.90;;;;;;5255084;27;20559;-33
2024/04/18 09:44:19;;;;;;;3.67;2.00;;;11.80;93.80;;;;;;5256391;27;20539;-33
2024/04/18 09:46:50;;;;;;;3.17;1.80;;;11.90;93.80;;;;;;5272705;27;20447;-32
2024/04/18 09:49:20;;;;;;;3.63;1.60;;;11.90;94.10;;;;;;5259657;27;20471;-32
2024/04/18 09:51:48;;;;;;;2.93;1.97;;;11.90;93.70;;;;;;5282425;27;20473;-32
2024/04/18 09:54:15;;;;;;;1.90;1.50;;;12.00;93.70;;;;;;5262908;27;20473;-33
2024/04/18 09:56:46;;;;;;;4.40;2.47;;;12.00;93.70;;;;;;5235700;27;20954;-33
2024/04/18 09:59:14;;;;;;;3.27;1.83;;;12.00;93.60;;;;;;5247286;27;21382;-32
2024/04/18 10:01:43;;;;;;;3.87;2.27;;;12.00;93.60;;;;;;5264054;27;20613;-33
2024/04/18 10:04:09;;;;;;;2.13;1.40;;;12.00;93.50;;;;;;5256282;27;20966;-32
2024/04/18 10:06:43;;;;;;;3.40;2.00;;;12.10;93.50;;;;;;5270975;27;20463;-31
2024/04/18 10:09:12;;;;;;;1.90;1.60;;;12.10;93.40;;;;;;5221252;27;20680;-32
2024/04/18 10:11:39;;;;;;;3.70;1.80;;;12.10;93.40;;;;;;5271342;27;20520;-32
2024/04/18 10:14:07;;;;;;;3.17;1.80;;;12.20;93.30;;;;;;5243279;27;20471;-31
2024/04/18 10:16:48;;;;;;;2.23;1.50;;;12.20;93.20;;;;;;5259189;27;20520;-32
2024/04/18 10:19:21;;;;;;;3.70;1.60;;;12.20;93.10;;;;;;5245581;27;20965;-31
2024/04/18 10:21:58;;;;;;;3.80;2.53;;;12.20;93.00;;;;;;5253950;27;21453;-33
2024/04/18 10:24:37;;;;;;;3.03;1.50;;;12.20;92.90;;;;;;5283574;27;20506;-30
2024/04/18 10:27:14;;;;;;;3.03;1.57;;;12.30;92.90;;;;;;5217773;27;20531;-32
2024/04/18 10:29:58;;;;;;;3.67;1.53;;;12.30;92.70;;;;;;5232215;27;20541;-32
2024/04/18 10:32:29;;;;;;;3.97;1.40;;;12.30;92.60;;;;;;5254170;27;20483;-32
2024/04/18 10:34:55;;;;;;;3.03;1.60;;;12.40;92.60;;;;;;5274326;27;20885;-33
2024/04/18 10:37:22;;;;;;;3.90;1.60;;;12.40;92.50;;;;;;5258196;27;20469;-33
2024/04/18 10:39:49;;;;;;;3.60;1.43;;;12.40;92.30;;;;;;5235651;27;20613;-32
2024/04/18 10:42:20;;;;;;;4.10;1.60;;;12.50;92.20;;;;;;5252052;27;20478;-32
2024/04/18 10:44:49;;;;;;;2.70;1.83;;;12.40;92.10;;;;;;5278164;27;21011;-33
2024/04/18 10:47:20;;;;;;;2.23;1.23;;;12.50;92.10;;;;;;5246346;27;20460;-32
2024/04/18 10:49:46;;;;;;;4.57;1.50;;;12.50;92.00;;;;;;5279932;27;20658;-33
2024/04/18 10:52:16;;;;;;;3.10;1.57;;;12.50;92.00;;;;;;5243168;27;20461;-33
2024/04/18 10:54:43;;;;;;;2.00;1.63;;;12.60;91.90;;;;;;5274545;27;20923;-31
2024/04/18 10:57:09;;;;;;;2.27;1.67;;;12.60;91.90;;;;;;5254532;27;20456;-32
2024/04/18 10:59:38;;;;;;;5.10;1.67;;;12.70;91.80;;;;;;5258467;27;20548;-31
2024/04/18 11:02:10;;;;;;;6.43;1.53;;;12.70;91.70;;;;;;5249915;27;20476;-33
2024/04/18 11:04:36;;;;;;;4.77;1.60;;;12.70;91.70;;;;;;5278286;27;20473;-32
2024/04/18 11:07:02;;;;;;;3.00;1.57;;;12.70;91.60;;;;;;5280067;27;20523;-31
2024/04/18 11:09:29;;;;;;;2.20;1.37;;;12.80;91.60;;;;;;5246739;27;21288;-32
2024/04/18 11:11:55;;;;;;;2.03;1.30;;;12.80;91.50;;;;;;5269524;27;20534;-33
2024/04/18 11:14:25;;;;;;;2.30;1.20;;;12.80;91.40;;;;;;5275958;27;20516;-32
2024/04/18 11:16:59;;;;;;;1.53;1.03;;;12.80;91.50;;;;;;5252869;27;20473;-32
2024/04/18 11:19:27;;;;;;;1.40;1.30;;;12.90;91.60;;;;;;5281438;27;20451;-30
2024/04/18 11:21:54;;;;;;;4.87;1.60;;;12.90;91.50;;;;;;5274732;27;20472;-33
2024/04/18 11:24:21;;;;;;;4.93;1.50;;;12.90;91.50;;;;;;5249629;27;20519;-33
2024/04/18 11:26:53;;;;;;;1.40;1.30;;;12.90;91.40;;;;;;5283323;27;20559;-31
2024/04/18 11:29:29;;;;;;;2.70;1.50;;;12.90;91.40;;;;;;5288638;27;20456;-33
2024/04/18 11:32:05;;;;;;;2.30;1.30;;;13.00;91.30;;;;;;5267586;27;20586;-31
2024/04/18 11:34:31;;;;;;;2.47;1.23;;;13.00;91.30;;;;;;5269013;27;20466;-30
2024/04/18 11:36:58;;;;;;;1.97;1.40;;;13.00;91.20;;;;;;5272896;27;20459;-32
2024/04/18 11:39:27;;;;;;;2.03;1.50;;;13.00;91.20;;;;;;5246454;27;20459;-32
2024/04/18 11:41:53;;;;;;;3.70;1.70;;;13.00;91.20;;;;;;5261657;27;21412;-39
2024/04/18 11:44:19;;;;;;;1.67;1.57;;;13.10;91.30;;;;;;5270258;27;20508;-41
2024/04/18 11:46:48;;;;;;;1.70;1.40;;;13.10;91.30;;;;;;5263305;27;20535;-41
2024/04/18 11:49:14;;;;;;;2.50;1.40;;;13.10;91.20;;;;;;5225264;27;20266;-38
2024/04/18 11:51:40;;;;;;;3.40;1.87;;;13.20;91.20;;;;;;5241129;27;21355;-40
2024/04/18 11:54:06;;;;;;;2.40;1.37;;;13.10;91.10;;;;;;5269939;27;20531;-41
2024/04/18 11:56:35;;;;;;;2.27;1.70;;;13.20;91.10;;;;;;5255351;27;20907;-42
2024/04/18 11:59:24;;;;;;;3.60;1.77;;;13.20;91.10;;;;;;5238823;27;21058;-39
2024/04/18 12:01:50;;;;;;;2.10;1.80;;;13.20;91.00;;;;;;5255300;27;20506;-39
2024/04/18 12:04:19;;;;;;;2.70;1.77;;;13.30;91.10;;;;;;5287302;27;20467;-38
2024/04/18 12:06:50;;;;;;;3.73;2.43;;;13.30;91.10;;;;;;5250733;27;20509;-39
2024/04/18 12:09:28;;;;;;;5.70;4.40;;;13.30;91.10;;;;;;5269789;27;20624;-40
2024/04/18 12:11:58;;;;;;;5.70;3.10;;;13.30;91.00;;;;;;5246305;27;20528;-39
2024/04/18 12:14:24;;;;;;;7.60;5.93;;;13.30;90.90;;;;;;5258166;27;20470;-41
2024/04/18 12:16:53;;;;;;;8.17;5.40;;;13.30;90.80;;;;;;5269476;27;20469;-40
2024/04/18 12:19:19;;;;;;;6.70;5.40;;;13.40;90.90;;;;;;5272888;27;20932;-38
2024/04/18 12:21:45;;;;;;;9.50;5.47;;;13.40;90.90;;;;;;5267026;27;20465;-39
2024/04/18 12:24:11;;;;;;;7.73;5.83;;;13.40;90.80;;;;;;5257395;27;20464;-40
2024/04/18 12:26:38;;;;;;;6.57;4.93;;;13.50;90.80;;;;;;5258128;27;20467;-39
2024/04/18 12:29:07;;;;;;;6.73;4.57;;;13.50;90.70;;;;;;5252858;27;20521;-41
2024/04/18 12:31:55;;;;;;;4.90;3.90;;;13.50;90.60;;;;;;5274078;27;21430;-41
2024/04/18 12:34:21;;;;;;;5.67;4.10;;;13.50;90.60;;;;;;5220627;27;21077;-40
2024/04/18 12:37:07;;;;;;;6.40;4.10;;;13.60;90.60;;;;;;5258612;27;20470;-39
2024/04/18 12:39:36;;;;;;;4.97;4.13;;;13.60;90.40;;;;;;5231980;27;21145;-41
2024/04/18 12:42:25;;;;;;;5.00;3.80;;;13.60;90.40;;;;;;5271694;27;20463;-41
2024/04/18 12:44:51;;;;;;;4.97;3.50;;;13.60;90.40;;;;;;5282776;27;20461;-39
2024/04/18 12:47:20;;;;;;;5.27;3.63;;;13.70;90.40;;;;;;5256034;27;20473;-38
2024/04/18 12:49:50;;;;;;;4.60;3.70;;;13.70;90.30;;;;;;5265250;27;20464;-40
2024/04/18 12:52:17;;;;;;;4.10;3.10;;;13.70;90.20;;;;;;5251778;27;20527;-37
2024/04/18 12:54:43;;;;;;;3.43;2.90;;;13.80;90.20;;;;;;5240306;27;20512;-39
2024/04/18 12:57:22;;;;;;;4.47;3.27;;;13.80;90.20;;;;;;5255366;27;20533;-41
2024/04/18 13:00:04;;;;;;;5.43;3.00;;;13.80;90.10;;;;;;5247511;27;20555;-37
2024/04/18 13:02:53;;;;;;;2.83;2.47;;;13.80;90.10;;;;;;5265143;27;20483;-38
2024/04/18 13:05:36;;;;;;;3.33;2.53;;;13.80;90.00;;;;;;5225103;27;20554;-40
2024/04/18 13:08:03;;;;;;;3.10;2.70;;;13.90;90.00;;;;;;5215470;27;20616;-40
2024/04/18 13:10:49;;;;;;;3.67;2.70;;;13.90;89.90;;;;;;5266123;27;20471;-39